sensor_id;sensor_type;location;lat;lon;timestamp;temperature;humidity
10030;DHT22;5055;52.054;8.524;2023-08-24T00:00:37;16.50;97.00
10030;DHT22;5055;52.054;8.524;2023-08-24T00:03:05;16.50;97.00
10030;DHT22;5055;52.054;8.524;2023-08-24T00:05:36;16.50;97.00
10030;DHT22;5055;52.054;8.524;2023-08-24T00:08:06;16.50;97.00
10030;DHT22;5055;52.054;8.524;2023-08-24T00:10:36;16.50;97.00
10030;DHT22;5055;52.054;8.524;2023-08-24T00:13:05;16.50;97.00
10030;DHT22;5055;52.054;8.524;2023-08-24T00:15:34;16.40;97.00
10030;DHT22;5055;52.054;8.524;2023-08-24T00:18:03;16.40;97.00
10030;DHT22;5055;52.054;8.524;2023-08-24T00:20:32;16.40;97.00
10030;DHT22;5055;52.054;8.524;2023-08-24T00:23:02;16.40;97.00
10030;DHT22;5055;52.054;8.524;2023-08-24T00:25:31;16.40;97.00
10030;DHT22;5055;52.054;8.524;2023-08-24T00:27:59;16.30;97.00
10030;DHT22;5055;52.054;8.524;2023-08-24T00:30:28;16.30;97.00
10030;DHT22;5055;52.054;8.524;2023-08-24T00:32:56;16.30;97.00
10030;DHT22;5055;52.054;8.524;2023-08-24T00:35:25;16.20;97.00
10030;DHT22;5055;52.054;8.524;2023-08-24T00:37:54;16.20;97.00
10030;DHT22;5055;52.054;8.524;2023-08-24T00:40:23;16.10;97.00
10030;DHT22;5055;52.054;8.524;2023-08-24T00:42:52;16.10;97.00
10030;DHT22;5055;52.054;8.524;2023-08-24T00:45:20;16.10;97.00
10030;DHT22;5055;52.054;8.524;2023-08-24T00:47:49;16.00;97.00
10030;DHT22;5055;52.054;8.524;2023-08-24T00:50:19;16.00;97.00
10030;DHT22;5055;52.054;8.524;2023-08-24T00:52:49;16.00;97.00
10030;DHT22;5055;52.054;8.524;2023-08-24T00:55:17;16.00;97.00
10030;DHT22;5055;52.054;8.524;2023-08-24T00:57:47;15.90;97.00
10030;DHT22;5055;52.054;8.524;2023-08-24T01:00:17;15.90;97.00
10030;DHT22;5055;52.054;8.524;2023-08-24T01:02:46;15.90;97.00
10030;DHT22;5055;52.054;8.524;2023-08-24T01:05:15;15.90;97.00
10030;DHT22;5055;52.054;8.524;2023-08-24T01:07:43;15.80;97.00
10030;DHT22;5055;52.054;8.524;2023-08-24T01:10:12;15.80;97.00
10030;DHT22;5055;52.054;8.524;2023-08-24T01:12:55;15.80;97.00
10030;DHT22;5055;52.054;8.524;2023-08-24T01:15:33;15.70;97.00
10030;DHT22;5055;52.054;8.524;2023-08-24T01:18:05;15.70;97.00
10030;DHT22;5055;52.054;8.524;2023-08-24T01:20:34;15.70;97.00
10030;DHT22;5055;52.054;8.524;2023-08-24T01:23:11;15.60;97.00
10030;DHT22;5055;52.054;8.524;2023-08-24T01:25:48;15.60;97.00
10030;DHT22;5055;52.054;8.524;2023-08-24T01:28:21;15.50;97.00
10030;DHT22;5055;52.054;8.524;2023-08-24T01:30:50;15.50;97.00
10030;DHT22;5055;52.054;8.524;2023-08-24T01:33:19;15.50;97.00
10030;DHT22;5055;52.054;8.524;2023-08-24T01:35:47;15.50;97.00
10030;DHT22;5055;52.054;8.524;2023-08-24T01:38:16;15.40;97.00
10030;DHT22;5055;52.054;8.524;2023-08-24T01:40:49;15.40;97.00
10030;DHT22;5055;52.054;8.524;2023-08-24T01:43:26;15.40;97.00
10030;DHT22;5055;52.054;8.524;2023-08-24T01:46:11;15.40;97.00
10030;DHT22;5055;52.054;8.524;2023-08-24T01:48:43;15.30;97.00
10030;DHT22;5055;52.054;8.524;2023-08-24T01:51:12;15.30;97.00
10030;DHT22;5055;52.054;8.524;2023-08-24T01:53:42;15.30;97.00
10030;DHT22;5055;52.054;8.524;2023-08-24T01:56:11;15.30;97.00
10030;DHT22;5055;52.054;8.524;2023-08-24T01:58:41;15.20;97.00
10030;DHT22;5055;52.054;8.524;2023-08-24T02:01:10;15.20;97.00
10030;DHT22;5055;52.054;8.524;2023-08-24T02:03:39;15.20;97.00
10030;DHT22;5055;52.054;8.524;2023-08-24T02:06:08;15.20;97.00
10030;DHT22;5055;52.054;8.524;2023-08-24T02:08:36;15.20;97.00
10030;DHT22;5055;52.054;8.524;2023-08-24T02:11:05;15.20;97.00
10030;DHT22;5055;52.054;8.524;2023-08-24T02:13:34;15.10;97.00
10030;DHT22;5055;52.054;8.524;2023-08-24T02:16:05;15.10;97.00
10030;DHT22;5055;52.054;8.524;2023-08-24T02:18:34;15.10;97.00
10030;DHT22;5055;52.054;8.524;2023-08-24T02:21:07;15.10;97.00
10030;DHT22;5055;52.054;8.524;2023-08-24T02:23:37;15.00;97.00
10030;DHT22;5055;52.054;8.524;2023-08-24T02:26:06;15.00;97.00
10030;DHT22;5055;52.054;8.524;2023-08-24T02:28:35;15.00;97.00
10030;DHT22;5055;52.054;8.524;2023-08-24T02:31:06;15.00;97.00
10030;DHT22;5055;52.054;8.524;2023-08-24T02:33:35;15.00;97.00
10030;DHT22;5055;52.054;8.524;2023-08-24T02:36:04;14.90;97.00
10030;DHT22;5055;52.054;8.524;2023-08-24T02:38:32;14.90;97.00
10030;DHT22;5055;52.054;8.524;2023-08-24T02:41:01;14.90;97.00
10030;DHT22;5055;52.054;8.524;2023-08-24T02:43:31;14.90;97.00
10030;DHT22;5055;52.054;8.524;2023-08-24T02:46:00;14.90;97.00
10030;DHT22;5055;52.054;8.524;2023-08-24T02:48:32;14.90;97.00
10030;DHT22;5055;52.054;8.524;2023-08-24T02:51:02;14.80;97.00
10030;DHT22;5055;52.054;8.524;2023-08-24T02:53:31;14.80;97.00
10030;DHT22;5055;52.054;8.524;2023-08-24T02:56:03;14.70;97.00
10030;DHT22;5055;52.054;8.524;2023-08-24T02:58:31;14.70;97.00
10030;DHT22;5055;52.054;8.524;2023-08-24T03:01:04;14.70;97.00
10030;DHT22;5055;52.054;8.524;2023-08-24T03:03:35;14.70;97.00
10030;DHT22;5055;52.054;8.524;2023-08-24T03:06:05;14.70;97.00
10030;DHT22;5055;52.054;8.524;2023-08-24T03:08:34;14.70;97.00
10030;DHT22;5055;52.054;8.524;2023-08-24T03:11:03;14.70;97.00
10030;DHT22;5055;52.054;8.524;2023-08-24T03:13:33;14.70;97.00
10030;DHT22;5055;52.054;8.524;2023-08-24T03:16:03;14.70;97.00
10030;DHT22;5055;52.054;8.524;2023-08-24T03:18:33;14.70;97.00
10030;DHT22;5055;52.054;8.524;2023-08-24T03:21:02;14.70;97.00
10030;DHT22;5055;52.054;8.524;2023-08-24T03:23:30;14.70;97.00
10030;DHT22;5055;52.054;8.524;2023-08-24T03:25:59;14.70;97.00
10030;DHT22;5055;52.054;8.524;2023-08-24T03:28:28;14.70;97.00
10030;DHT22;5055;52.054;8.524;2023-08-24T03:30:56;14.70;97.00
10030;DHT22;5055;52.054;8.524;2023-08-24T03:33:24;14.70;97.00
10030;DHT22;5055;52.054;8.524;2023-08-24T03:35:56;14.70;97.00
10030;DHT22;5055;52.054;8.524;2023-08-24T03:38:24;14.70;97.00
10030;DHT22;5055;52.054;8.524;2023-08-24T03:41:00;14.70;97.00
10030;DHT22;5055;52.054;8.524;2023-08-24T03:43:33;14.70;97.00
10030;DHT22;5055;52.054;8.524;2023-08-24T03:46:02;14.70;97.00
10030;DHT22;5055;52.054;8.524;2023-08-24T03:48:31;14.70;97.00
10030;DHT22;5055;52.054;8.524;2023-08-24T03:51:01;14.70;97.00
10030;DHT22;5055;52.054;8.524;2023-08-24T03:53:30;14.70;97.00
10030;DHT22;5055;52.054;8.524;2023-08-24T03:55:59;14.70;97.00
10030;DHT22;5055;52.054;8.524;2023-08-24T03:58:28;14.70;97.00
10030;DHT22;5055;52.054;8.524;2023-08-24T04:00:56;14.70;97.00
10030;DHT22;5055;52.054;8.524;2023-08-24T04:03:25;14.70;97.00
10030;DHT22;5055;52.054;8.524;2023-08-24T04:05:53;14.70;97.00
10030;DHT22;5055;52.054;8.524;2023-08-24T04:08:23;14.80;97.00
10030;DHT22;5055;52.054;8.524;2023-08-24T04:10:52;14.80;97.00
10030;DHT22;5055;52.054;8.524;2023-08-24T04:13:20;14.80;97.00
10030;DHT22;5055;52.054;8.524;2023-08-24T04:15:49;14.80;97.00
10030;DHT22;5055;52.054;8.524;2023-08-24T04:18:17;14.80;97.00
10030;DHT22;5055;52.054;8.524;2023-08-24T04:20:46;14.80;97.00
10030;DHT22;5055;52.054;8.524;2023-08-24T04:23:14;14.80;97.00
10030;DHT22;5055;52.054;8.524;2023-08-24T04:25:44;14.80;97.00
10030;DHT22;5055;52.054;8.524;2023-08-24T04:28:13;14.90;97.00
10030;DHT22;5055;52.054;8.524;2023-08-24T04:30:49;14.90;97.00
10030;DHT22;5055;52.054;8.524;2023-08-24T04:33:17;14.90;97.00
10030;DHT22;5055;52.054;8.524;2023-08-24T04:35:47;15.00;97.00
10030;DHT22;5055;52.054;8.524;2023-08-24T04:38:16;15.00;97.00
10030;DHT22;5055;52.054;8.524;2023-08-24T04:40:55;15.00;97.00
10030;DHT22;5055;52.054;8.524;2023-08-24T04:43:24;15.00;97.00
10030;DHT22;5055;52.054;8.524;2023-08-24T04:45:54;15.00;97.00
10030;DHT22;5055;52.054;8.524;2023-08-24T04:48:25;15.10;97.00
10030;DHT22;5055;52.054;8.524;2023-08-24T04:50:54;15.20;97.00
10030;DHT22;5055;52.054;8.524;2023-08-24T04:53:23;15.20;97.00
10030;DHT22;5055;52.054;8.524;2023-08-24T04:55:54;15.20;97.00
10030;DHT22;5055;52.054;8.524;2023-08-24T04:58:22;15.30;97.00
10030;DHT22;5055;52.054;8.524;2023-08-24T05:00:52;15.30;97.00
10030;DHT22;5055;52.054;8.524;2023-08-24T05:03:24;15.40;97.00
10030;DHT22;5055;52.054;8.524;2023-08-24T05:05:53;15.40;97.00
10030;DHT22;5055;52.054;8.524;2023-08-24T05:08:22;15.40;97.00
10030;DHT22;5055;52.054;8.524;2023-08-24T05:10:50;15.40;97.00
10030;DHT22;5055;52.054;8.524;2023-08-24T05:13:21;15.50;97.00
10030;DHT22;5055;52.054;8.524;2023-08-24T05:15:50;15.50;97.00
10030;DHT22;5055;52.054;8.524;2023-08-24T05:18:18;15.50;97.00
10030;DHT22;5055;52.054;8.524;2023-08-24T05:20:47;15.60;97.00
10030;DHT22;5055;52.054;8.524;2023-08-24T05:23:16;15.60;97.00
10030;DHT22;5055;52.054;8.524;2023-08-24T05:25:45;15.60;97.00
10030;DHT22;5055;52.054;8.524;2023-08-24T05:28:14;15.60;97.00
10030;DHT22;5055;52.054;8.524;2023-08-24T05:30:44;15.60;97.00
10030;DHT22;5055;52.054;8.524;2023-08-24T05:33:12;15.60;97.00
10030;DHT22;5055;52.054;8.524;2023-08-24T05:35:41;15.60;97.00
10030;DHT22;5055;52.054;8.524;2023-08-24T05:38:12;15.60;97.00
10030;DHT22;5055;52.054;8.524;2023-08-24T05:40:42;15.70;97.00
10030;DHT22;5055;52.054;8.524;2023-08-24T05:43:10;15.70;97.00
10030;DHT22;5055;52.054;8.524;2023-08-24T05:45:39;15.70;97.00
10030;DHT22;5055;52.054;8.524;2023-08-24T05:48:12;15.80;97.00
10030;DHT22;5055;52.054;8.524;2023-08-24T05:50:43;15.80;97.00
10030;DHT22;5055;52.054;8.524;2023-08-24T05:53:12;15.90;97.00
10030;DHT22;5055;52.054;8.524;2023-08-24T05:55:41;16.00;97.00
10030;DHT22;5055;52.054;8.524;2023-08-24T05:58:09;16.10;97.00
10030;DHT22;5055;52.054;8.524;2023-08-24T06:00:38;16.10;97.00
10030;DHT22;5055;52.054;8.524;2023-08-24T06:03:06;16.20;97.00
10030;DHT22;5055;52.054;8.524;2023-08-24T06:05:36;16.20;97.00
10030;DHT22;5055;52.054;8.524;2023-08-24T06:08:05;16.30;97.00
10030;DHT22;5055;52.054;8.524;2023-08-24T06:10:34;16.40;97.00
10030;DHT22;5055;52.054;8.524;2023-08-24T06:13:03;16.40;97.00
10030;DHT22;5055;52.054;8.524;2023-08-24T06:15:31;16.50;97.00
10030;DHT22;5055;52.054;8.524;2023-08-24T06:18:00;16.50;97.00
10030;DHT22;5055;52.054;8.524;2023-08-24T06:20:28;16.60;97.00
10030;DHT22;5055;52.054;8.524;2023-08-24T06:22:58;16.60;97.00
10030;DHT22;5055;52.054;8.524;2023-08-24T06:25:26;16.60;97.00
10030;DHT22;5055;52.054;8.524;2023-08-24T06:27:54;16.70;97.00
10030;DHT22;5055;52.054;8.524;2023-08-24T06:30:23;16.80;97.00
10030;DHT22;5055;52.054;8.524;2023-08-24T06:32:51;16.80;97.00
10030;DHT22;5055;52.054;8.524;2023-08-24T06:35:19;16.90;97.00
10030;DHT22;5055;52.054;8.524;2023-08-24T06:37:48;17.00;97.00
10030;DHT22;5055;52.054;8.524;2023-08-24T06:40:18;17.00;97.00
10030;DHT22;5055;52.054;8.524;2023-08-24T06:42:47;17.10;97.00
10030;DHT22;5055;52.054;8.524;2023-08-24T06:45:15;17.20;97.00
10030;DHT22;5055;52.054;8.524;2023-08-24T06:47:45;17.30;97.00
10030;DHT22;5055;52.054;8.524;2023-08-24T06:50:14;17.40;97.00
10030;DHT22;5055;52.054;8.524;2023-08-24T06:52:43;17.50;97.00
10030;DHT22;5055;52.054;8.524;2023-08-24T06:55:11;17.50;97.00
10030;DHT22;5055;52.054;8.524;2023-08-24T06:57:41;17.70;97.00
10030;DHT22;5055;52.054;8.524;2023-08-24T07:00:10;17.80;97.00
10030;DHT22;5055;52.054;8.524;2023-08-24T07:02:42;18.00;97.00
10030;DHT22;5055;52.054;8.524;2023-08-24T07:05:10;18.10;97.00
10030;DHT22;5055;52.054;8.524;2023-08-24T07:07:39;18.30;97.00
10030;DHT22;5055;52.054;8.524;2023-08-24T07:10:10;18.50;97.00
10030;DHT22;5055;52.054;8.524;2023-08-24T07:12:39;18.70;97.00
10030;DHT22;5055;52.054;8.524;2023-08-24T07:15:10;18.90;97.00
10030;DHT22;5055;52.054;8.524;2023-08-24T07:17:38;19.30;97.00
10030;DHT22;5055;52.054;8.524;2023-08-24T07:20:08;19.70;97.00
10030;DHT22;5055;52.054;8.524;2023-08-24T07:22:36;19.80;97.00
10030;DHT22;5055;52.054;8.524;2023-08-24T07:25:05;19.80;97.00
10030;DHT22;5055;52.054;8.524;2023-08-24T07:27:35;19.70;97.00
10030;DHT22;5055;52.054;8.524;2023-08-24T07:30:04;20.10;97.00
10030;DHT22;5055;52.054;8.524;2023-08-24T07:32:55;20.60;97.00
10030;DHT22;5055;52.054;8.524;2023-08-24T07:35:24;21.10;97.00
10030;DHT22;5055;52.054;8.524;2023-08-24T07:37:53;21.30;97.00
10030;DHT22;5055;52.054;8.524;2023-08-24T07:40:21;21.30;97.00
10030;DHT22;5055;52.054;8.524;2023-08-24T07:42:51;21.30;97.00
10030;DHT22;5055;52.054;8.524;2023-08-24T07:45:22;21.40;97.00
10030;DHT22;5055;52.054;8.524;2023-08-24T07:47:51;21.70;97.00
10030;DHT22;5055;52.054;8.524;2023-08-24T07:50:25;21.80;97.00
10030;DHT22;5055;52.054;8.524;2023-08-24T07:52:54;21.70;97.00
10030;DHT22;5055;52.054;8.524;2023-08-24T07:55:24;21.70;97.00
10030;DHT22;5055;52.054;8.524;2023-08-24T07:57:52;22.10;97.00
10030;DHT22;5055;52.054;8.524;2023-08-24T08:00:21;22.40;97.00
10030;DHT22;5055;52.054;8.524;2023-08-24T08:02:51;22.80;97.00
10030;DHT22;5055;52.054;8.524;2023-08-24T08:05:20;23.10;97.00
10030;DHT22;5055;52.054;8.524;2023-08-24T08:07:51;23.40;97.00
10030;DHT22;5055;52.054;8.524;2023-08-24T08:10:20;23.60;97.00
10030;DHT22;5055;52.054;8.524;2023-08-24T08:12:48;23.90;97.00
10030;DHT22;5055;52.054;8.524;2023-08-24T08:15:17;24.40;97.00
10030;DHT22;5055;52.054;8.524;2023-08-24T08:17:46;24.90;97.00
10030;DHT22;5055;52.054;8.524;2023-08-24T08:20:15;25.10;97.00
10030;DHT22;5055;52.054;8.524;2023-08-24T08:22:44;25.20;97.00
10030;DHT22;5055;52.054;8.524;2023-08-24T08:25:14;25.60;97.00
10030;DHT22;5055;52.054;8.524;2023-08-24T08:27:45;25.70;97.00
10030;DHT22;5055;52.054;8.524;2023-08-24T08:30:13;25.80;97.00
10030;DHT22;5055;52.054;8.524;2023-08-24T08:32:42;26.10;97.00
10030;DHT22;5055;52.054;8.524;2023-08-24T08:35:11;26.20;97.00
10030;DHT22;5055;52.054;8.524;2023-08-24T08:37:39;26.50;97.00
10030;DHT22;5055;52.054;8.524;2023-08-24T08:40:10;26.60;97.00
10030;DHT22;5055;52.054;8.524;2023-08-24T08:42:40;27.00;97.00
10030;DHT22;5055;52.054;8.524;2023-08-24T08:45:10;27.50;97.00
10030;DHT22;5055;52.054;8.524;2023-08-24T08:47:39;27.20;97.00
10030;DHT22;5055;52.054;8.524;2023-08-24T08:50:09;27.20;97.00
10030;DHT22;5055;52.054;8.524;2023-08-24T08:52:38;27.10;97.00
10030;DHT22;5055;52.054;8.524;2023-08-24T08:55:07;27.30;97.00
10030;DHT22;5055;52.054;8.524;2023-08-24T08:57:39;27.80;97.00
10030;DHT22;5055;52.054;8.524;2023-08-24T09:00:11;27.60;97.00
10030;DHT22;5055;52.054;8.524;2023-08-24T09:02:43;27.80;97.00
10030;DHT22;5055;52.054;8.524;2023-08-24T09:05:13;27.60;97.00
10030;DHT22;5055;52.054;8.524;2023-08-24T09:07:43;27.80;97.00
10030;DHT22;5055;52.054;8.524;2023-08-24T09:10:15;28.10;97.00
10030;DHT22;5055;52.054;8.524;2023-08-24T09:12:44;28.00;97.00
10030;DHT22;5055;52.054;8.524;2023-08-24T09:15:13;28.20;97.00
10030;DHT22;5055;52.054;8.524;2023-08-24T09:17:44;28.50;97.00
10030;DHT22;5055;52.054;8.524;2023-08-24T09:20:14;28.80;97.00
10030;DHT22;5055;52.054;8.524;2023-08-24T09:22:42;28.40;97.00
10030;DHT22;5055;52.054;8.524;2023-08-24T09:25:11;28.60;97.00
10030;DHT22;5055;52.054;8.524;2023-08-24T09:27:40;28.80;97.00
10030;DHT22;5055;52.054;8.524;2023-08-24T09:30:13;28.80;97.00
10030;DHT22;5055;52.054;8.524;2023-08-24T09:32:42;28.80;97.00
10030;DHT22;5055;52.054;8.524;2023-08-24T09:35:11;28.80;97.00
10030;DHT22;5055;52.054;8.524;2023-08-24T09:37:40;28.90;97.00
10030;DHT22;5055;52.054;8.524;2023-08-24T09:40:12;29.00;97.00
10030;DHT22;5055;52.054;8.524;2023-08-24T09:42:42;29.10;97.00
10030;DHT22;5055;52.054;8.524;2023-08-24T09:45:13;29.40;97.00
10030;DHT22;5055;52.054;8.524;2023-08-24T09:47:46;29.30;97.00
10030;DHT22;5055;52.054;8.524;2023-08-24T09:50:15;29.50;97.00
10030;DHT22;5055;52.054;8.524;2023-08-24T09:52:44;29.70;97.00
10030;DHT22;5055;52.054;8.524;2023-08-24T09:55:19;29.90;97.00
10030;DHT22;5055;52.054;8.524;2023-08-24T09:57:53;30.20;97.00
10030;DHT22;5055;52.054;8.524;2023-08-24T10:00:26;30.60;97.00
10030;DHT22;5055;52.054;8.524;2023-08-24T10:02:55;30.50;97.00
10030;DHT22;5055;52.054;8.524;2023-08-24T10:05:24;30.60;97.00
10030;DHT22;5055;52.054;8.524;2023-08-24T10:08:08;30.90;97.00
10030;DHT22;5055;52.054;8.524;2023-08-24T10:10:38;31.10;97.00
10030;DHT22;5055;52.054;8.524;2023-08-24T10:13:14;31.30;97.00
10030;DHT22;5055;52.054;8.524;2023-08-24T10:15:48;31.60;97.00
10030;DHT22;5055;52.054;8.524;2023-08-24T10:18:18;31.20;97.00
10030;DHT22;5055;52.054;8.524;2023-08-24T10:20:47;31.00;97.00
10030;DHT22;5055;52.054;8.524;2023-08-24T10:23:17;30.80;97.00
10030;DHT22;5055;52.054;8.524;2023-08-24T10:25:49;30.90;97.00
10030;DHT22;5055;52.054;8.524;2023-08-24T10:28:20;31.20;97.00
10030;DHT22;5055;52.054;8.524;2023-08-24T10:30:50;31.40;97.00
10030;DHT22;5055;52.054;8.524;2023-08-24T10:33:19;31.20;97.00
10030;DHT22;5055;52.054;8.524;2023-08-24T10:35:49;31.40;97.00
10030;DHT22;5055;52.054;8.524;2023-08-24T10:38:24;31.70;97.00
10030;DHT22;5055;52.054;8.524;2023-08-24T10:41:02;31.60;97.00
10030;DHT22;5055;52.054;8.524;2023-08-24T10:43:34;31.90;97.00
10030;DHT22;5055;52.054;8.524;2023-08-24T10:46:10;32.10;97.00
10030;DHT22;5055;52.054;8.524;2023-08-24T10:48:58;32.00;97.00
10030;DHT22;5055;52.054;8.524;2023-08-24T10:51:27;32.50;97.00
10030;DHT22;5055;52.054;8.524;2023-08-24T10:54:00;32.40;97.00
10030;DHT22;5055;52.054;8.524;2023-08-24T10:56:36;32.60;97.00
10030;DHT22;5055;52.054;8.524;2023-08-24T10:59:13;32.90;97.00
10030;DHT22;5055;52.054;8.524;2023-08-24T11:01:54;33.10;97.00
10030;DHT22;5055;52.054;8.524;2023-08-24T11:04:23;33.40;97.00
10030;DHT22;5055;52.054;8.524;2023-08-24T11:06:54;33.40;97.00
10030;DHT22;5055;52.054;8.524;2023-08-24T11:09:23;33.40;97.00
10030;DHT22;5055;52.054;8.524;2023-08-24T11:11:58;33.40;97.00
10030;DHT22;5055;52.054;8.524;2023-08-24T11:14:29;33.60;97.00
10030;DHT22;5055;52.054;8.524;2023-08-24T11:17:00;33.80;97.00
10030;DHT22;5055;52.054;8.524;2023-08-24T11:19:29;33.70;97.00
10030;DHT22;5055;52.054;8.524;2023-08-24T11:21:58;34.00;97.00
10030;DHT22;5055;52.054;8.524;2023-08-24T11:24:27;33.50;97.00
10030;DHT22;5055;52.054;8.524;2023-08-24T11:26:57;33.30;97.00
10030;DHT22;5055;52.054;8.524;2023-08-24T11:29:29;33.40;97.00
10030;DHT22;5055;52.054;8.524;2023-08-24T11:31:59;33.50;97.00
10030;DHT22;5055;52.054;8.524;2023-08-24T11:34:27;33.00;97.00
10030;DHT22;5055;52.054;8.524;2023-08-24T11:36:56;32.30;97.00
10030;DHT22;5055;52.054;8.524;2023-08-24T11:39:24;32.00;97.00
10030;DHT22;5055;52.054;8.524;2023-08-24T11:41:59;31.80;97.00
10030;DHT22;5055;52.054;8.524;2023-08-24T11:44:28;31.80;97.00
10030;DHT22;5055;52.054;8.524;2023-08-24T11:46:58;31.90;97.00
10030;DHT22;5055;52.054;8.524;2023-08-24T11:49:27;32.20;97.00
10030;DHT22;5055;52.054;8.524;2023-08-24T11:51:55;32.00;97.00
10030;DHT22;5055;52.054;8.524;2023-08-24T11:54:25;32.10;97.00
10030;DHT22;5055;52.054;8.524;2023-08-24T11:56:53;32.20;97.00
10030;DHT22;5055;52.054;8.524;2023-08-24T11:59:25;32.10;97.00
10030;DHT22;5055;52.054;8.524;2023-08-24T12:01:54;31.70;97.00
10030;DHT22;5055;52.054;8.524;2023-08-24T12:04:24;31.50;97.00
10030;DHT22;5055;52.054;8.524;2023-08-24T12:06:53;31.30;97.00
10030;DHT22;5055;52.054;8.524;2023-08-24T12:09:22;30.80;97.00
10030;DHT22;5055;52.054;8.524;2023-08-24T12:11:55;30.60;97.00
10030;DHT22;5055;52.054;8.524;2023-08-24T12:14:25;30.90;97.00
10030;DHT22;5055;52.054;8.524;2023-08-24T12:16:53;31.00;97.00
10030;DHT22;5055;52.054;8.524;2023-08-24T12:19:23;31.40;97.00
10030;DHT22;5055;52.054;8.524;2023-08-24T12:21:52;31.60;97.00
10030;DHT22;5055;52.054;8.524;2023-08-24T12:24:20;31.60;97.00
10030;DHT22;5055;52.054;8.524;2023-08-24T12:26:55;31.10;97.00
10030;DHT22;5055;52.054;8.524;2023-08-24T12:29:25;30.80;97.00
10030;DHT22;5055;52.054;8.524;2023-08-24T12:31:57;30.80;97.00
10030;DHT22;5055;52.054;8.524;2023-08-24T12:34:27;30.70;97.00
10030;DHT22;5055;52.054;8.524;2023-08-24T12:36:55;30.50;97.00
10030;DHT22;5055;52.054;8.524;2023-08-24T12:39:24;30.50;97.00
10030;DHT22;5055;52.054;8.524;2023-08-24T12:41:52;30.50;97.00
10030;DHT22;5055;52.054;8.524;2023-08-24T12:44:21;30.20;97.00
10030;DHT22;5055;52.054;8.524;2023-08-24T12:46:49;30.50;97.00
10030;DHT22;5055;52.054;8.524;2023-08-24T12:49:18;30.80;97.00
10030;DHT22;5055;52.054;8.524;2023-08-24T12:51:48;30.70;97.00
10030;DHT22;5055;52.054;8.524;2023-08-24T12:54:16;30.90;97.00
10030;DHT22;5055;52.054;8.524;2023-08-24T12:56:45;31.10;97.00
10030;DHT22;5055;52.054;8.524;2023-08-24T12:59:13;31.20;97.00
10030;DHT22;5055;52.054;8.524;2023-08-24T13:01:42;31.00;97.00
10030;DHT22;5055;52.054;8.524;2023-08-24T13:04:10;30.70;97.00
10030;DHT22;5055;52.054;8.524;2023-08-24T13:06:39;30.60;97.00
10030;DHT22;5055;52.054;8.524;2023-08-24T13:09:09;30.00;97.00
10030;DHT22;5055;52.054;8.524;2023-08-24T13:11:39;29.90;97.00
10030;DHT22;5055;52.054;8.524;2023-08-24T13:14:07;30.00;97.00
10030;DHT22;5055;52.054;8.524;2023-08-24T13:16:35;30.30;97.00
10030;DHT22;5055;52.054;8.524;2023-08-24T13:19:04;30.60;97.00
10030;DHT22;5055;52.054;8.524;2023-08-24T13:21:33;30.70;97.00
10030;DHT22;5055;52.054;8.524;2023-08-24T13:24:01;30.90;97.00
10030;DHT22;5055;52.054;8.524;2023-08-24T13:26:31;30.70;97.00
10030;DHT22;5055;52.054;8.524;2023-08-24T13:29:00;30.90;97.00
10030;DHT22;5055;52.054;8.524;2023-08-24T13:31:29;30.80;97.00
10030;DHT22;5055;52.054;8.524;2023-08-24T13:33:58;30.90;97.00
10030;DHT22;5055;52.054;8.524;2023-08-24T13:36:26;31.00;97.00
10030;DHT22;5055;52.054;8.524;2023-08-24T13:38:54;31.10;97.00
10030;DHT22;5055;52.054;8.524;2023-08-24T13:41:23;31.20;97.00
10030;DHT22;5055;52.054;8.524;2023-08-24T13:43:53;31.20;97.00
10030;DHT22;5055;52.054;8.524;2023-08-24T13:46:22;31.50;97.00
10030;DHT22;5055;52.054;8.524;2023-08-24T13:48:50;31.50;97.00
10030;DHT22;5055;52.054;8.524;2023-08-24T13:51:19;31.60;97.00
10030;DHT22;5055;52.054;8.524;2023-08-24T13:53:47;31.90;97.00
10030;DHT22;5055;52.054;8.524;2023-08-24T13:56:16;32.20;97.00
10030;DHT22;5055;52.054;8.524;2023-08-24T13:58:44;32.30;97.00
10030;DHT22;5055;52.054;8.524;2023-08-24T14:01:15;32.40;97.00
10030;DHT22;5055;52.054;8.524;2023-08-24T14:03:43;32.30;97.00
10030;DHT22;5055;52.054;8.524;2023-08-24T14:06:11;32.50;97.00
10030;DHT22;5055;52.054;8.524;2023-08-24T14:08:41;32.20;97.00
10030;DHT22;5055;52.054;8.524;2023-08-24T14:11:09;32.20;97.00
10030;DHT22;5055;52.054;8.524;2023-08-24T14:13:41;32.20;97.00
10030;DHT22;5055;52.054;8.524;2023-08-24T14:16:09;31.80;97.00
10030;DHT22;5055;52.054;8.524;2023-08-24T14:18:39;31.70;97.00
10030;DHT22;5055;52.054;8.524;2023-08-24T14:21:08;31.40;97.00
10030;DHT22;5055;52.054;8.524;2023-08-24T14:23:41;31.30;97.00
10030;DHT22;5055;52.054;8.524;2023-08-24T14:26:10;31.20;97.00
10030;DHT22;5055;52.054;8.524;2023-08-24T14:28:50;30.70;97.00
10030;DHT22;5055;52.054;8.524;2023-08-24T14:31:21;30.40;97.00
10030;DHT22;5055;52.054;8.524;2023-08-24T14:33:51;30.20;97.00
10030;DHT22;5055;52.054;8.524;2023-08-24T14:36:20;30.10;97.00
10030;DHT22;5055;52.054;8.524;2023-08-24T14:38:50;30.10;97.00
10030;DHT22;5055;52.054;8.524;2023-08-24T14:41:19;30.00;97.00
10030;DHT22;5055;52.054;8.524;2023-08-24T14:43:47;29.80;97.00
10030;DHT22;5055;52.054;8.524;2023-08-24T14:46:16;29.60;97.00
10030;DHT22;5055;52.054;8.524;2023-08-24T14:48:45;29.50;97.00
10030;DHT22;5055;52.054;8.524;2023-08-24T14:51:15;29.30;97.00
10030;DHT22;5055;52.054;8.524;2023-08-24T14:53:43;29.10;97.00
10030;DHT22;5055;52.054;8.524;2023-08-24T14:56:12;29.00;97.00
10030;DHT22;5055;52.054;8.524;2023-08-24T14:58:41;28.80;97.00
10030;DHT22;5055;52.054;8.524;2023-08-24T15:01:09;28.70;97.00
10030;DHT22;5055;52.054;8.524;2023-08-24T15:03:38;28.60;97.00
10030;DHT22;5055;52.054;8.524;2023-08-24T15:06:07;28.50;97.00
10030;DHT22;5055;52.054;8.524;2023-08-24T15:08:38;28.40;97.00
10030;DHT22;5055;52.054;8.524;2023-08-24T15:11:08;28.30;97.00
10030;DHT22;5055;52.054;8.524;2023-08-24T15:13:38;28.30;97.00
10030;DHT22;5055;52.054;8.524;2023-08-24T15:16:07;28.20;97.00
10030;DHT22;5055;52.054;8.524;2023-08-24T15:18:37;28.10;97.00
10030;DHT22;5055;52.054;8.524;2023-08-24T15:21:05;28.00;97.00
10030;DHT22;5055;52.054;8.524;2023-08-24T15:23:36;28.00;97.00
10030;DHT22;5055;52.054;8.524;2023-08-24T15:26:05;28.00;97.00
10030;DHT22;5055;52.054;8.524;2023-08-24T15:28:37;28.00;97.00
10030;DHT22;5055;52.054;8.524;2023-08-24T15:31:25;28.00;97.00
10030;DHT22;5055;52.054;8.524;2023-08-24T15:33:53;28.10;97.00
10030;DHT22;5055;52.054;8.524;2023-08-24T15:36:25;28.20;97.00
10030;DHT22;5055;52.054;8.524;2023-08-24T15:38:54;28.20;97.00
10030;DHT22;5055;52.054;8.524;2023-08-24T15:41:23;28.20;97.00
10030;DHT22;5055;52.054;8.524;2023-08-24T15:43:52;28.30;97.00
10030;DHT22;5055;52.054;8.524;2023-08-24T15:46:22;28.40;97.00
10030;DHT22;5055;52.054;8.524;2023-08-24T15:48:50;28.40;97.00
10030;DHT22;5055;52.054;8.524;2023-08-24T15:51:23;28.50;97.00
10030;DHT22;5055;52.054;8.524;2023-08-24T15:54:02;28.50;97.00
10030;DHT22;5055;52.054;8.524;2023-08-24T15:56:37;28.50;97.00
10030;DHT22;5055;52.054;8.524;2023-08-24T15:59:08;28.50;97.00
10030;DHT22;5055;52.054;8.524;2023-08-24T16:01:36;28.50;97.00